createdAt,value
2023-03-28T00:01:08.175Z,1.23
2023-03-28T00:03:39.969Z,1.23
2023-03-28T00:06:11.467Z,1.21
2023-03-28T00:08:40.837Z,1.19
2023-03-28T00:11:18.638Z,1.16
2023-03-28T00:13:47.753Z,1.15
2023-03-28T00:16:16.626Z,1.14
2023-03-28T00:18:45.417Z,1.12
2023-03-28T00:21:23.952Z,1.08
2023-03-28T00:23:53.612Z,1.06
2023-03-28T00:26:26.696Z,1.05
2023-03-28T00:28:56.104Z,1.02
2023-03-28T00:31:25.950Z,1.00
2023-03-28T00:33:55.396Z,0.97
2023-03-28T00:36:26.530Z,0.96
2023-03-28T00:38:55.203Z,0.94
2023-03-28T00:41:26.758Z,0.93
2023-03-28T00:43:57.114Z,0.93
2023-03-28T00:46:29.767Z,0.92
2023-03-28T00:49:03.383Z,0.89
2023-03-28T00:51:35.689Z,0.86
2023-03-28T00:54:08.558Z,0.85
2023-03-28T00:56:39.159Z,0.83
2023-03-28T00:59:13.106Z,0.82
2023-03-28T01:01:42.146Z,0.79
2023-03-28T01:04:10.713Z,0.76
2023-03-28T01:06:46.376Z,0.76
2023-03-28T01:09:19.893Z,0.72
2023-03-28T01:11:54.962Z,0.71
2023-03-28T01:14:27.433Z,0.70
2023-03-28T01:16:57.787Z,0.68
2023-03-28T01:19:39.808Z,0.65
2023-03-28T01:22:32.550Z,0.62
2023-03-28T01:25:47.548Z,0.59
2023-03-28T01:28:33.722Z,0.58
2023-03-28T01:31:30.422Z,0.56
2023-03-28T01:34:57.365Z,0.55
2023-03-28T01:37:40.128Z,0.52
2023-03-28T01:40:23.599Z,0.51
2023-03-28T01:43:11.135Z,0.49
2023-03-28T01:45:48.183Z,0.46
2023-03-28T01:48:28.000Z,0.44
2023-03-28T01:51:00.296Z,0.40
2023-03-28T01:53:33.765Z,0.38
2023-03-28T01:56:09.825Z,0.35
2023-03-28T01:58:46.506Z,0.34
2023-03-28T02:01:25.280Z,0.33
2023-03-28T02:04:02.359Z,0.34
2023-03-28T02:06:42.446Z,0.32
2023-03-28T02:09:24.795Z,0.28
2023-03-28T02:12:21.530Z,0.26
2023-03-28T02:15:05.129Z,0.25
2023-03-28T02:18:03.470Z,0.23
2023-03-28T02:21:00.476Z,0.21
2023-03-28T02:23:51.636Z,0.18
2023-03-28T02:26:40.956Z,0.15
2023-03-28T02:29:16.880Z,0.14
2023-03-28T02:31:53.460Z,0.13
2023-03-28T02:34:21.929Z,0.10
2023-03-28T02:36:57.663Z,0.10
2023-03-28T02:39:42.918Z,0.08
2023-03-28T02:42:30.280Z,0.06
2023-03-28T02:45:16.165Z,0.03
2023-03-28T02:47:56.768Z,0.02
2023-03-28T02:50:35.757Z,0.00
2023-03-28T02:53:10.888Z,-0.01
2023-03-28T02:55:45.508Z,-0.03
2023-03-28T02:58:30.322Z,-0.07
2023-03-28T03:00:58.870Z,-0.09
2023-03-28T03:03:27.478Z,-0.11
2023-03-28T03:05:58.367Z,-0.14
2023-03-28T03:08:27.822Z,-0.15
2023-03-28T03:10:57.697Z,-0.19
2023-03-28T03:13:27.711Z,-0.22
2023-03-28T03:15:56.346Z,-0.23
2023-03-28T03:18:26.164Z,-0.25
2023-03-28T03:20:55.537Z,-0.25
2023-03-28T03:23:24.010Z,-0.27
2023-03-28T03:25:56.162Z,-0.28
2023-03-28T03:28:32.228Z,-0.31
2023-03-28T03:31:03.196Z,-0.32
2023-03-28T03:33:54.443Z,-0.35
2023-03-28T03:36:30.363Z,-0.37
2023-03-28T03:39:01.068Z,-0.38
2023-03-28T03:41:29.618Z,-0.40
2023-03-28T03:43:59.408Z,-0.42
2023-03-28T03:46:27.918Z,-0.44
2023-03-28T03:48:56.340Z,-0.45
2023-03-28T03:51:24.833Z,-0.48
2023-03-28T03:53:58.238Z,-0.50
2023-03-28T03:56:35.115Z,-0.51
2023-03-28T03:59:05.043Z,-0.53
2023-03-28T04:01:39.354Z,-0.55
2023-03-28T04:04:33.729Z,-0.59
2023-03-28T04:07:22.430Z,-0.59
2023-03-28T04:09:53.714Z,-0.60
2023-03-28T04:12:22.572Z,-0.60
2023-03-28T04:14:54.355Z,-0.63
2023-03-28T04:17:37.883Z,-0.64
2023-03-28T04:20:14.092Z,-0.68
2023-03-28T04:23:01.311Z,-0.69
2023-03-28T04:25:34.044Z,-0.70
2023-03-28T04:28:09.375Z,-0.73
2023-03-28T04:30:45.378Z,-0.75
2023-03-28T04:33:33.866Z,-0.76
2023-03-28T04:36:04.645Z,-0.78
2023-03-28T04:38:36.618Z,-0.79
2023-03-28T04:41:37.006Z,-0.80
2023-03-28T04:44:44.269Z,-0.81
2023-03-28T04:47:15.261Z,-0.82
2023-03-28T04:49:43.710Z,-0.82
2023-03-28T04:52:12.835Z,-0.82
2023-03-28T04:54:44.534Z,-0.84
2023-03-28T04:57:17.339Z,-0.85
2023-03-28T04:59:48.875Z,-0.86
2023-03-28T05:02:27.417Z,-0.87
2023-03-28T05:05:03.976Z,-0.88
2023-03-28T05:07:32.595Z,-0.90
2023-03-28T05:10:02.474Z,-0.90
2023-03-28T05:12:37.129Z,-0.92
2023-03-28T05:15:07.355Z,-0.93
2023-03-28T05:17:48.620Z,-0.94
2023-03-28T05:20:22.523Z,-0.95
2023-03-28T05:22:55.259Z,-0.95
2023-03-28T05:25:23.946Z,-0.96
2023-03-28T05:27:52.849Z,-0.96
2023-03-28T05:30:21.868Z,-0.95
2023-03-28T05:32:55.349Z,-0.94
2023-03-28T05:35:23.967Z,-0.93
2023-03-28T05:37:53.192Z,-0.91
2023-03-28T05:40:22.045Z,-0.90
2023-03-28T05:42:51.865Z,-0.89
2023-03-28T05:45:22.809Z,-0.88
2023-03-28T05:47:52.516Z,-0.87
2023-03-28T05:50:23.604Z,-0.83
2023-03-28T05:52:52.984Z,-0.80
2023-03-28T05:55:21.405Z,-0.79
2023-03-28T05:57:50.044Z,-0.77
2023-03-28T06:00:21.381Z,-0.75
2023-03-28T06:02:54.911Z,-0.73
2023-03-28T06:05:34.491Z,-0.70
2023-03-28T06:08:05.272Z,-0.68
2023-03-28T06:10:34.721Z,-0.65
2023-03-28T06:13:19.486Z,-0.59
2023-03-28T06:15:49.359Z,-0.55
2023-03-28T06:18:19.678Z,-0.51
2023-03-28T06:20:52.305Z,-0.48
2023-03-28T06:23:20.889Z,-0.45
2023-03-28T06:25:49.415Z,-0.41
2023-03-28T06:28:20.019Z,-0.39
2023-03-28T06:31:16.260Z,-0.34
2023-03-28T06:33:45.507Z,-0.30
2023-03-28T06:36:16.376Z,-0.26
2023-03-28T06:38:45.865Z,-0.23
2023-03-28T06:41:14.594Z,-0.19
2023-03-28T06:43:43.567Z,-0.14
2023-03-28T06:46:31.914Z,-0.09
2023-03-28T06:49:01.228Z,-0.06
2023-03-28T06:51:31.057Z,-0.01
2023-03-28T06:53:59.470Z,0.04
2023-03-28T06:56:31.101Z,0.08
2023-03-28T06:59:00.707Z,0.14
2023-03-28T07:01:32.835Z,0.18
2023-03-28T07:04:11.204Z,0.23
2023-03-28T07:06:43.344Z,0.29
2023-03-28T07:09:11.759Z,0.34
2023-03-28T07:11:44.577Z,0.40
2023-03-28T07:14:13.758Z,0.44
2023-03-28T07:16:42.530Z,0.50
2023-03-28T07:19:12.334Z,0.56
2023-03-28T07:21:45.446Z,0.62
2023-03-28T07:24:13.841Z,0.69
2023-03-28T07:27:14.961Z,0.77
2023-03-28T07:29:45.058Z,0.84
2023-03-28T07:32:13.531Z,0.90
2023-03-28T07:34:44.884Z,0.98
2023-03-28T07:37:21.074Z,1.05
2023-03-28T07:40:17.584Z,1.16
2023-03-28T07:42:48.954Z,1.23
2023-03-28T07:45:18.313Z,1.31
2023-03-28T07:47:47.055Z,1.39
2023-03-28T07:50:15.797Z,1.49
2023-03-28T07:52:47.361Z,1.57
2023-03-28T07:55:16.100Z,1.66
2023-03-28T07:57:48.904Z,1.74
2023-03-28T08:00:27.558Z,1.82
2023-03-28T08:03:23.658Z,1.93
2023-03-28T08:05:52.625Z,2.01
2023-03-28T08:08:24.356Z,2.08
2023-03-28T08:11:06.617Z,2.16
2023-03-28T08:13:35.331Z,2.24
2023-03-28T08:16:10.587Z,2.31
2023-03-28T08:18:38.952Z,2.37
2023-03-28T08:21:08.102Z,2.45
2023-03-28T08:23:38.047Z,2.52
2023-03-28T08:26:28.208Z,2.59
2023-03-28T08:28:59.601Z,2.66
2023-03-28T08:31:30.388Z,2.70
2023-03-28T08:34:05.339Z,2.79
2023-03-28T08:36:38.220Z,2.83
2023-03-28T08:39:10.041Z,2.91
2023-03-28T08:41:57.015Z,2.99
2023-03-28T08:44:40.938Z,3.06
2023-03-28T08:47:15.590Z,3.11
2023-03-28T08:49:47.500Z,3.18
2023-03-28T08:52:20.200Z,3.24
2023-03-28T08:54:54.512Z,3.32
2023-03-28T08:57:29.362Z,3.38
2023-03-28T09:00:08.744Z,3.47
2023-03-28T09:02:37.553Z,3.56
2023-03-28T09:05:21.851Z,3.64
2023-03-28T09:08:01.152Z,3.72
2023-03-28T09:10:40.539Z,3.81
2023-03-28T09:13:27.115Z,3.91
2023-03-28T09:16:07.042Z,4.00
2023-03-28T09:18:54.811Z,4.10
2023-03-28T09:21:31.062Z,4.20
2023-03-28T09:24:15.336Z,4.27
2023-03-28T09:27:16.148Z,4.38
2023-03-28T09:29:45.816Z,4.47
2023-03-28T09:32:21.821Z,4.55
2023-03-28T09:34:52.416Z,4.61
2023-03-28T09:37:41.814Z,4.66
2023-03-28T09:40:23.352Z,4.69
2023-03-28T09:43:17.133Z,4.73
2023-03-28T09:46:02.914Z,4.76
2023-03-28T09:48:50.049Z,4.80
2023-03-28T09:51:21.957Z,4.84
2023-03-28T09:53:50.540Z,4.90
2023-03-28T09:56:27.480Z,4.98
2023-03-28T09:59:01.835Z,5.06
2023-03-28T10:01:43.684Z,5.14
2023-03-28T10:04:40.608Z,5.25
2023-03-28T10:07:34.002Z,5.35
2023-03-28T10:10:20.625Z,5.45
2023-03-28T10:12:58.187Z,5.54
2023-03-28T10:15:35.638Z,5.65
2023-03-28T10:18:19.243Z,5.76
2023-03-28T10:20:53.116Z,5.85
2023-03-28T10:23:23.978Z,5.91
2023-03-28T10:25:56.281Z,5.95
2023-03-28T10:28:31.166Z,6.00
2023-03-28T10:31:02.779Z,6.02
2023-03-28T10:33:37.140Z,6.05
2023-03-28T10:36:31.549Z,6.11
2023-03-28T10:39:21.584Z,6.19
2023-03-28T10:42:08.863Z,6.24
2023-03-28T10:45:04.628Z,6.36
2023-03-28T10:47:38.662Z,6.48
2023-03-28T10:50:22.635Z,6.58
2023-03-28T10:53:01.203Z,6.65
2023-03-28T10:55:40.491Z,6.71
2023-03-28T10:58:34.302Z,6.78
2023-03-28T11:01:13.921Z,6.89
2023-03-28T11:04:08.482Z,6.95
2023-03-28T11:06:45.471Z,6.99
2023-03-28T11:09:25.072Z,7.00
2023-03-28T11:12:33.902Z,7.05
2023-03-28T11:15:11.987Z,7.10
2023-03-28T11:17:57.793Z,7.19
2023-03-28T11:20:42.911Z,7.27
2023-03-28T11:23:25.732Z,7.37
2023-03-28T11:26:18.099Z,7.46
2023-03-28T11:29:25.860Z,7.60
2023-03-28T11:32:06.412Z,7.70
2023-03-28T11:34:42.622Z,7.79
2023-03-28T11:37:18.607Z,7.88
2023-03-28T11:39:53.101Z,7.97
2023-03-28T11:42:37.059Z,8.08
2023-03-28T11:45:15.827Z,8.10
2023-03-28T11:47:50.918Z,8.15
2023-03-28T11:50:24.782Z,8.24
2023-03-28T11:53:08.452Z,8.23
2023-03-28T11:55:49.743Z,8.22
2023-03-28T11:58:39.818Z,8.28
2023-03-28T12:01:14.641Z,8.33
2023-03-28T12:03:58.071Z,8.36
2023-03-28T12:06:33.867Z,8.38
2023-03-28T12:09:12.643Z,8.42
2023-03-28T12:11:46.689Z,8.43
2023-03-28T12:14:30.921Z,8.47
2023-03-28T12:17:16.883Z,8.50
2023-03-28T12:19:48.474Z,8.47
2023-03-28T12:22:26.625Z,8.45
2023-03-28T12:25:07.872Z,8.49
2023-03-28T12:27:50.800Z,8.57
2023-03-28T12:30:32.375Z,8.68
2023-03-28T12:33:13.133Z,8.81
2023-03-28T12:35:55.312Z,8.96
2023-03-28T12:38:32.251Z,9.08
2023-03-28T12:41:31.707Z,9.24
2023-03-28T12:44:05.322Z,9.45
2023-03-28T12:46:46.201Z,9.63
2023-03-28T12:49:19.559Z,9.75
2023-03-28T12:51:51.543Z,9.80
2023-03-28T12:54:28.301Z,9.90
2023-03-28T12:57:04.107Z,9.99
2023-03-28T13:00:04.720Z,10.08
2023-03-28T13:02:52.625Z,10.13
2023-03-28T13:05:25.801Z,10.18
2023-03-28T13:08:01.589Z,10.15
2023-03-28T13:10:39.450Z,10.11
2023-03-28T13:13:19.558Z,10.12
2023-03-28T13:15:58.800Z,10.19
2023-03-28T13:18:33.849Z,10.23
2023-03-28T13:21:07.258Z,10.27
2023-03-28T13:23:45.754Z,10.32
2023-03-28T13:26:15.006Z,10.31
2023-03-28T13:28:47.788Z,10.28
2023-03-28T13:31:25.523Z,10.30
2023-03-28T13:34:01.397Z,10.31
2023-03-28T13:36:32.674Z,10.33
2023-03-28T13:39:22.314Z,10.37
2023-03-28T13:42:00.237Z,10.45
2023-03-28T13:44:42.828Z,10.47
2023-03-28T13:47:26.672Z,10.38
2023-03-28T13:50:01.885Z,10.31
2023-03-28T13:52:30.284Z,10.14
2023-03-28T13:55:02.638Z,10.11
2023-03-28T13:57:31.611Z,10.02
2023-03-28T14:00:04.928Z,9.95
2023-03-28T14:02:44.562Z,9.95
2023-03-28T14:05:19.506Z,10.00
2023-03-28T14:07:48.052Z,9.99
2023-03-28T14:10:28.751Z,10.07
2023-03-28T14:12:59.523Z,10.08
2023-03-28T14:15:31.902Z,10.15
2023-03-28T14:18:01.938Z,10.20
2023-03-28T14:20:31.004Z,10.31
2023-03-28T14:23:01.585Z,10.43
2023-03-28T14:25:31.212Z,10.50
2023-03-28T14:28:08.465Z,10.61
2023-03-28T14:30:43.156Z,10.72
2023-03-28T14:33:20.602Z,10.89
2023-03-28T14:35:58.330Z,11.12
2023-03-28T14:38:35.244Z,11.39
2023-03-28T14:41:09.627Z,11.61
2023-03-28T14:43:38.021Z,11.76
2023-03-28T14:46:10.979Z,11.80
2023-03-28T14:48:42.469Z,11.81
2023-03-28T14:51:14.240Z,11.91
2023-03-28T14:53:45.798Z,11.96
2023-03-28T14:56:19.231Z,12.12
2023-03-28T14:58:49.947Z,12.25
2023-03-28T15:01:23.177Z,12.39
2023-03-28T15:03:57.659Z,12.41
2023-03-28T15:06:29.077Z,12.41
2023-03-28T15:08:59.518Z,12.47
2023-03-28T15:11:32.483Z,12.49
2023-03-28T15:14:04.666Z,12.55
2023-03-28T15:16:39.452Z,12.59
2023-03-28T15:19:17.885Z,12.52
2023-03-28T15:21:54.344Z,12.36
2023-03-28T15:24:23.353Z,12.20
2023-03-28T15:26:56.885Z,12.09
2023-03-28T15:29:26.462Z,12.01
2023-03-28T15:32:02.650Z,11.97
2023-03-28T15:34:33.201Z,11.90
2023-03-28T15:37:03.467Z,11.86
2023-03-28T15:39:34.617Z,11.84
2023-03-28T15:42:26.533Z,11.80
2023-03-28T15:45:22.102Z,11.79
2023-03-28T15:47:55.420Z,11.73
2023-03-28T15:50:30.307Z,11.69
2023-03-28T15:53:00.941Z,11.63
2023-03-28T15:55:29.574Z,11.58
2023-03-28T15:57:58.657Z,11.50
2023-03-28T16:00:39.501Z,11.42
2023-03-28T16:03:34.474Z,11.37
2023-03-28T16:06:23.222Z,11.32
2023-03-28T16:09:15.715Z,11.26
2023-03-28T16:11:45.441Z,11.18
2023-03-28T16:14:52.785Z,11.17
2023-03-28T16:17:44.693Z,11.10
2023-03-28T16:20:25.324Z,11.07
2023-03-28T16:22:53.851Z,11.04
2023-03-28T16:25:22.244Z,11.00
2023-03-28T16:27:51.402Z,10.96
2023-03-28T16:30:22.447Z,10.94
2023-03-28T16:32:52.007Z,10.88
2023-03-28T16:35:22.773Z,10.83
2023-03-28T16:37:51.811Z,10.76
2023-03-28T16:40:20.255Z,10.73
2023-03-28T16:42:48.800Z,10.68
2023-03-28T16:45:17.518Z,10.60
2023-03-28T16:47:46.016Z,10.56
2023-03-28T16:50:14.609Z,10.51
2023-03-28T16:52:44.410Z,10.46
2023-03-28T16:55:14.601Z,10.44
2023-03-28T16:57:43.614Z,10.40
2023-03-28T17:00:18.123Z,10.34
2023-03-28T17:02:47.080Z,10.29
2023-03-28T17:05:16.142Z,10.25
2023-03-28T17:07:46.179Z,10.20
2023-03-28T17:10:14.656Z,10.15
2023-03-28T17:12:43.317Z,10.11
2023-03-28T17:15:13.061Z,10.08
2023-03-28T17:17:41.662Z,10.04
2023-03-28T17:20:11.663Z,9.99
2023-03-28T17:22:42.482Z,9.95
2023-03-28T17:25:12.411Z,9.91
2023-03-28T17:27:40.778Z,9.87
2023-03-28T17:30:11.717Z,9.83
2023-03-28T17:32:40.327Z,9.80
2023-03-28T17:35:11.348Z,9.78
2023-03-28T17:37:40.003Z,9.76
2023-03-28T17:40:09.529Z,9.72
2023-03-28T17:42:39.412Z,9.68
2023-03-28T17:45:09.468Z,9.65
2023-03-28T17:47:39.391Z,9.62
2023-03-28T17:50:09.139Z,9.58
2023-03-28T17:52:37.740Z,9.55
2023-03-28T17:55:07.304Z,9.50
2023-03-28T17:57:36.312Z,9.49
2023-03-28T18:00:07.779Z,9.46
2023-03-28T18:02:45.962Z,9.42
2023-03-28T18:05:33.791Z,9.39
2023-03-28T18:08:02.683Z,9.36
2023-03-28T18:10:31.634Z,9.35
2023-03-28T18:13:00.709Z,9.33
2023-03-28T18:15:30.751Z,9.29
2023-03-28T18:18:01.696Z,9.28
2023-03-28T18:20:30.264Z,9.25
2023-03-28T18:22:58.696Z,9.23
2023-03-28T18:25:27.724Z,9.18
2023-03-28T18:27:56.298Z,9.19
2023-03-28T18:30:24.866Z,9.17
2023-03-28T18:32:54.805Z,9.16
2023-03-28T18:35:24.615Z,9.14
2023-03-28T18:37:53.107Z,9.14
2023-03-28T18:40:22.086Z,9.12
2023-03-28T18:42:50.950Z,9.09
2023-03-28T18:45:19.372Z,9.06
2023-03-28T18:47:47.874Z,8.97
2023-03-28T18:50:18.010Z,8.91
2023-03-28T18:52:46.507Z,8.87
2023-03-28T18:55:14.993Z,8.83
2023-03-28T18:57:43.453Z,8.75
2023-03-28T19:00:18.515Z,8.69
2023-03-28T19:02:48.829Z,8.63
2023-03-28T19:05:19.541Z,8.53
2023-03-28T19:07:48.489Z,8.45
2023-03-28T19:10:17.086Z,8.38
2023-03-28T19:12:45.718Z,8.30
2023-03-28T19:15:14.261Z,8.22
2023-03-28T19:17:42.924Z,8.17
2023-03-28T19:20:12.746Z,8.13
2023-03-28T19:22:43.038Z,8.10
2023-03-28T19:25:11.723Z,8.09
2023-03-28T19:27:41.276Z,8.07
2023-03-28T19:30:10.283Z,8.04
2023-03-28T19:32:38.833Z,8.00
2023-03-28T19:35:08.394Z,7.97
2023-03-28T19:37:36.893Z,7.92
2023-03-28T19:40:09.492Z,7.88
2023-03-28T19:42:40.399Z,7.85
2023-03-28T19:45:09.480Z,7.80
2023-03-28T19:47:38.066Z,7.72
2023-03-28T19:50:09.871Z,7.64
2023-03-28T19:52:39.573Z,7.57
2023-03-28T19:55:11.090Z,7.52
2023-03-28T19:57:39.609Z,7.47
2023-03-28T20:00:09.904Z,7.43
2023-03-28T20:02:41.324Z,7.36
2023-03-28T20:05:10.853Z,7.30
2023-03-28T20:07:39.305Z,7.25
2023-03-28T20:10:10.233Z,7.22
2023-03-28T20:12:39.831Z,7.16
2023-03-28T20:15:09.826Z,7.12
2023-03-28T20:17:38.429Z,7.08
2023-03-28T20:20:10.241Z,7.03
2023-03-28T20:22:38.739Z,7.00
2023-03-28T20:25:09.660Z,6.98
2023-03-28T20:27:38.440Z,6.96
2023-03-28T20:30:08.232Z,6.95
2023-03-28T20:32:36.684Z,6.93
2023-03-28T20:35:06.240Z,6.90
2023-03-28T20:37:34.756Z,6.90
2023-03-28T20:40:10.587Z,6.89
2023-03-28T20:42:41.143Z,6.88
2023-03-28T20:45:14.094Z,6.87
2023-03-28T20:47:42.897Z,6.83
2023-03-28T20:50:12.745Z,6.81
2023-03-28T20:52:41.172Z,6.76
2023-03-28T20:55:10.478Z,6.73
2023-03-28T20:57:42.341Z,6.72
2023-03-28T21:00:14.564Z,6.69
2023-03-28T21:02:43.527Z,6.68
2023-03-28T21:05:12.469Z,6.65
2023-03-28T21:07:41.173Z,6.63
2023-03-28T21:10:10.601Z,6.63
2023-03-28T21:12:40.621Z,6.61
2023-03-28T21:15:10.729Z,6.61
2023-03-28T21:17:39.705Z,6.61
2023-03-28T21:20:10.934Z,6.59
2023-03-28T21:22:39.549Z,6.58
2023-03-28T21:25:10.470Z,6.57
2023-03-28T21:27:40.501Z,6.55
2023-03-28T21:30:11.751Z,6.53
2023-03-28T21:32:40.258Z,6.52
2023-03-28T21:35:10.315Z,6.49
2023-03-28T21:37:38.787Z,6.48
2023-03-28T21:40:08.696Z,6.49
2023-03-28T21:42:37.117Z,6.48
2023-03-28T21:45:08.065Z,6.45
2023-03-28T21:47:38.141Z,6.44
2023-03-28T21:50:30.530Z,6.42
2023-03-28T21:52:59.066Z,6.42
2023-03-28T21:55:27.713Z,6.40
2023-03-28T21:57:56.111Z,6.38
2023-03-28T22:00:26.041Z,6.38
2023-03-28T22:02:54.727Z,6.36
2023-03-28T22:05:29.661Z,6.34
2023-03-28T22:07:58.528Z,6.33
2023-03-28T22:10:27.447Z,6.31
2023-03-28T22:12:58.910Z,6.29
2023-03-28T22:15:28.965Z,6.28
2023-03-28T22:17:58.244Z,6.28
2023-03-28T22:20:28.977Z,6.24
2023-03-28T22:23:00.551Z,6.24
2023-03-28T22:25:35.726Z,6.23
2023-03-28T22:28:05.758Z,6.21
2023-03-28T22:30:36.120Z,6.20
2023-03-28T22:33:05.662Z,6.18
2023-03-28T22:35:34.545Z,6.17
2023-03-28T22:38:03.685Z,6.16
2023-03-28T22:40:32.412Z,6.16
2023-03-28T22:43:00.981Z,6.15
2023-03-28T22:45:29.607Z,6.13
2023-03-28T22:48:00.209Z,6.13
2023-03-28T22:50:29.062Z,6.13
2023-03-28T22:52:57.997Z,6.11
2023-03-28T22:55:26.602Z,6.10
2023-03-28T22:57:55.081Z,6.10
2023-03-28T23:00:23.794Z,6.08
2023-03-28T23:02:52.879Z,6.09
2023-03-28T23:05:22.806Z,6.08
2023-03-28T23:07:52.864Z,6.07
2023-03-28T23:10:21.364Z,6.08
2023-03-28T23:12:49.935Z,6.07
2023-03-28T23:15:18.594Z,6.08
2023-03-28T23:17:47.528Z,6.07
2023-03-28T23:20:17.071Z,6.07
2023-03-28T23:22:48.991Z,6.07
2023-03-28T23:25:19.396Z,6.07
2023-03-28T23:27:47.998Z,6.06
2023-03-28T23:30:17.423Z,6.05
2023-03-28T23:32:46.108Z,6.04
2023-03-28T23:35:14.614Z,6.04
2023-03-28T23:37:42.976Z,6.04
2023-03-28T23:40:15.509Z,6.03
2023-03-28T23:42:45.256Z,6.03
2023-03-28T23:45:15.569Z,6.03
2023-03-28T23:47:45.044Z,6.01
2023-03-28T23:50:14.331Z,6.02
2023-03-28T23:52:42.885Z,6.02
2023-03-28T23:55:11.399Z,6.01
2023-03-28T23:57:41.598Z,6.01
